Terminal Aerodrome Forecast
Issued by NWS

Home | Current Version | Previous Version | Graphics & Text | Print | Product List | Glossary On
Versions: 1 2 3 4 5 6 7 8 9 10 11 12 13 14 15 16 17 18 19 20 21 22 23
653
FTUS43 KLOT 190539
TAFDPA
TAF
KDPA 190539Z 1906/2006 06005KT P6SM VCSH BKN060 OVC100
      TEMPO 1906/1910 4SM -SHRA BR OVC030
     FM191100 07005KT 6SM BR VCSH SCT018 BKN030
     FM191500 08007KT P6SM BKN035
     FM200400 14005KT P6SM FEW030 SCT200=

USA.gov is the U.S. government's official web portal to all federal, state and local government web resources and services.